createdAt,value
2019-03-01T00:02:07.332Z,25.33
2019-03-01T00:04:52.656Z,29.87
2019-03-01T00:07:57.550Z,30.47
2019-03-01T00:11:20.479Z,30.17
2019-03-01T00:14:18.975Z,30.30
2019-03-01T00:17:23.953Z,31.27
2019-03-01T00:20:40.749Z,27.57
2019-03-01T00:23:26.211Z,30.67
2019-03-01T00:26:37.013Z,30.27
2019-03-01T00:30:03.393Z,33.28
2019-03-01T00:32:53.671Z,27.60
2019-03-01T00:36:09.110Z,33.67
2019-03-01T00:38:54.253Z,31.27
2019-03-01T00:41:38.434Z,31.53
2019-03-01T00:44:48.364Z,34.43
2019-03-01T00:47:18.418Z,30.23
2019-03-01T00:49:48.377Z,34.03
2019-03-01T00:52:18.077Z,33.40
2019-03-01T00:54:47.822Z,35.73
2019-03-01T00:57:17.502Z,29.40
2019-03-01T00:59:47.284Z,32.40
2019-03-01T01:02:17.040Z,34.13
2019-03-01T01:04:46.836Z,34.37
2019-03-01T01:07:16.546Z,36.97
2019-03-01T01:09:46.239Z,32.67
2019-03-01T01:12:16.551Z,33.77
2019-03-01T01:14:46.472Z,31.47
2019-03-01T01:17:16.483Z,33.23
2019-03-01T01:19:46.278Z,32.40
2019-03-01T01:22:16.229Z,33.47
2019-03-01T01:24:45.913Z,35.90
2019-03-01T01:27:15.668Z,30.57
2019-03-01T01:29:45.998Z,35.60
2019-03-01T01:32:15.704Z,36.65
2019-03-01T01:34:45.394Z,34.30
2019-03-01T01:37:15.330Z,33.77
2019-03-01T01:39:45.010Z,34.00
2019-03-01T01:42:14.693Z,34.35
2019-03-01T01:44:44.773Z,36.10
2019-03-01T01:47:14.468Z,37.30
2019-03-01T01:49:44.145Z,40.97
2019-03-01T01:52:14.951Z,38.10
2019-03-01T01:54:44.675Z,38.93
2019-03-01T01:57:14.504Z,44.87
2019-03-01T01:59:45.466Z,38.20
2019-03-01T02:02:15.239Z,41.17
2019-03-01T02:04:45.161Z,36.20
2019-03-01T02:07:14.834Z,41.80
2019-03-01T02:09:44.954Z,40.40
2019-03-01T02:12:15.904Z,45.50
2019-03-01T02:14:45.670Z,44.57
2019-03-01T02:17:15.418Z,41.10
2019-03-01T02:19:45.254Z,37.93
2019-03-01T02:22:15.093Z,40.43
2019-03-01T02:24:44.820Z,36.53
2019-03-01T02:27:21.894Z,35.92
2019-03-01T02:29:51.729Z,44.63
2019-03-01T02:32:59.902Z,44.33
2019-03-01T02:35:29.666Z,42.73
2019-03-01T02:37:59.410Z,42.27
2019-03-01T02:40:29.639Z,37.77
2019-03-01T02:42:59.381Z,42.03
2019-03-01T02:45:29.073Z,40.67
2019-03-01T02:47:58.756Z,41.67
2019-03-01T02:50:28.510Z,43.90
2019-03-01T02:52:59.238Z,46.20
2019-03-01T02:55:29.252Z,47.47
2019-03-01T02:57:58.929Z,36.17
2019-03-01T03:00:28.904Z,43.27
2019-03-01T03:02:58.649Z,41.27
2019-03-01T03:05:28.389Z,35.77
2019-03-01T03:07:59.998Z,50.03
2019-03-01T03:10:29.968Z,44.83
2019-03-01T03:13:02.026Z,47.23
2019-03-01T03:15:34.267Z,44.23
2019-03-01T03:18:04.083Z,39.80
2019-03-01T03:20:33.988Z,40.13
2019-03-01T03:23:03.758Z,47.47
2019-03-01T03:25:33.423Z,49.27
2019-03-01T03:28:03.509Z,43.57
2019-03-01T03:30:33.347Z,53.23
2019-03-01T03:33:03.635Z,43.70
2019-03-01T03:35:33.352Z,45.57
2019-03-01T03:38:03.115Z,44.98
2019-03-01T03:40:32.918Z,48.37
2019-03-01T03:43:02.674Z,36.73
2019-03-01T03:45:32.445Z,45.27
2019-03-01T03:48:02.137Z,40.93
2019-03-01T03:50:31.915Z,45.03
2019-03-01T03:53:01.634Z,42.27
2019-03-01T03:55:31.487Z,42.63
2019-03-01T03:58:01.501Z,45.13
2019-03-01T04:00:31.428Z,41.83
2019-03-01T04:03:01.567Z,42.23
2019-03-01T04:05:31.340Z,37.13
2019-03-01T04:08:01.024Z,41.63
2019-03-01T04:10:30.726Z,39.83
2019-03-01T04:13:01.839Z,39.20
2019-03-01T04:15:31.756Z,38.40
2019-03-01T04:18:01.432Z,36.63
2019-03-01T04:20:31.159Z,36.10
2019-03-01T04:23:00.841Z,52.30
2019-03-01T04:25:30.638Z,39.83
2019-03-01T04:28:00.491Z,37.20
2019-03-01T04:30:30.329Z,43.80
2019-03-01T04:32:59.995Z,37.17
2019-03-01T04:35:29.759Z,44.73
2019-03-01T04:37:59.452Z,46.13
2019-03-01T04:40:29.150Z,36.77
2019-03-01T04:42:58.848Z,49.53
2019-03-01T04:45:28.647Z,38.65
2019-03-01T04:47:58.396Z,41.87
2019-03-01T04:50:28.383Z,40.03
2019-03-01T04:52:58.302Z,36.00
2019-03-01T04:55:28.416Z,41.83
2019-03-01T04:57:58.104Z,37.70
2019-03-01T05:00:27.793Z,47.47
2019-03-01T05:02:57.639Z,50.00
2019-03-01T05:05:27.598Z,46.83
2019-03-01T05:07:57.292Z,60.60
2019-03-01T05:10:27.022Z,46.53
2019-03-01T05:12:57.726Z,45.17
2019-03-01T05:15:27.448Z,52.80
2019-03-01T05:17:57.143Z,46.73
2019-03-01T05:20:26.846Z,50.27
2019-03-01T05:22:56.548Z,56.60
2019-03-01T05:25:26.252Z,52.27
2019-03-01T05:27:56.209Z,40.03
2019-03-01T05:30:25.987Z,52.93
2019-03-01T05:32:55.920Z,47.77
2019-03-01T05:35:25.666Z,48.57
2019-03-01T05:37:55.522Z,56.60
2019-03-01T05:40:25.387Z,54.47
2019-03-01T05:42:55.062Z,40.07
2019-03-01T05:45:24.801Z,54.70
2019-03-01T05:47:54.544Z,70.23
2019-03-01T05:50:24.262Z,63.27
2019-03-01T05:52:54.202Z,50.30
2019-03-01T05:55:24.043Z,65.73
2019-03-01T05:58:23.784Z,49.97
2019-03-01T06:00:53.679Z,54.40
2019-03-01T06:04:04.977Z,48.90
2019-03-01T06:06:59.466Z,54.43
2019-03-01T06:09:42.486Z,47.47
2019-03-01T06:12:44.334Z,52.55
2019-03-01T06:16:13.520Z,43.48
2019-03-01T06:19:06.952Z,42.53
2019-03-01T06:22:07.523Z,35.83
2019-03-01T06:25:04.651Z,38.37
2019-03-01T06:27:51.538Z,40.20
2019-03-01T06:30:51.930Z,47.63
2019-03-01T06:34:09.477Z,48.37
2019-03-01T06:37:18.350Z,43.83
2019-03-01T06:40:23.058Z,43.63
2019-03-01T06:43:04.172Z,44.63
2019-03-01T06:45:45.823Z,45.37
2019-03-01T06:48:25.172Z,44.13
2019-03-01T06:50:59.642Z,43.00
2019-03-01T06:53:29.397Z,53.97
2019-03-01T06:56:01.736Z,59.40
2019-03-01T06:58:36.923Z,47.60
2019-03-01T07:01:10.680Z,82.30
2019-03-01T07:03:46.859Z,61.23
2019-03-01T07:06:21.542Z,59.93
2019-03-01T07:08:51.262Z,71.23
2019-03-01T07:11:21.214Z,76.57
2019-03-01T07:13:50.930Z,65.10
2019-03-01T07:16:21.096Z,70.23
2019-03-01T07:18:50.786Z,74.50
2019-03-01T07:21:20.496Z,99.32
2019-03-01T07:23:50.163Z,63.67
2019-03-01T07:26:19.977Z,65.57
2019-03-01T07:28:49.924Z,56.83
2019-03-01T07:31:19.590Z,61.77
2019-03-01T07:33:49.298Z,79.53
2019-03-01T07:36:19.009Z,62.53
2019-03-01T07:38:48.766Z,81.23
2019-03-01T07:41:18.456Z,69.83
2019-03-01T07:43:48.505Z,58.37
2019-03-01T07:46:18.319Z,67.00
2019-03-01T07:48:48.281Z,68.67
2019-03-01T07:51:18.009Z,64.42
2019-03-01T07:53:47.694Z,55.40
2019-03-01T07:56:17.415Z,64.70
2019-03-01T07:58:47.334Z,63.27
2019-03-01T08:01:17.128Z,71.80
2019-03-01T08:03:52.264Z,61.57
2019-03-01T08:06:18.473Z,76.83
2019-03-01T08:08:48.387Z,74.10
2019-03-01T08:11:18.177Z,64.83
2019-03-01T08:13:49.395Z,69.70
2019-03-01T08:16:21.501Z,69.03
2019-03-01T08:18:52.226Z,61.03
2019-03-01T08:21:21.994Z,73.30
2019-03-01T08:23:51.672Z,70.20
2019-03-01T08:26:21.355Z,62.07
2019-03-01T08:28:51.089Z,64.27
2019-03-01T08:31:21.205Z,77.97
2019-03-01T08:33:52.000Z,69.83
2019-03-01T08:36:21.749Z,69.53
2019-03-01T08:38:51.693Z,73.90
2019-03-01T08:41:24.666Z,58.97
2019-03-01T08:43:52.998Z,60.33
2019-03-01T08:46:22.661Z,68.70
2019-03-01T08:48:52.469Z,67.93
2019-03-01T08:51:22.661Z,51.03
2019-03-01T08:53:53.600Z,59.23
2019-03-01T08:56:26.094Z,51.17
2019-03-01T08:58:54.670Z,50.50
2019-03-01T09:01:24.564Z,45.67
2019-03-01T09:04:00.288Z,36.77
2019-03-01T09:06:30.267Z,39.10
2019-03-01T09:09:01.389Z,45.80
2019-03-01T09:11:32.920Z,37.70
2019-03-01T09:14:02.992Z,34.37
2019-03-01T09:16:32.736Z,40.57
2019-03-01T09:19:02.530Z,39.13
2019-03-01T09:21:32.361Z,39.17
2019-03-01T09:24:02.027Z,39.57
2019-03-01T09:26:31.695Z,35.93
2019-03-01T09:29:01.379Z,38.77
2019-03-01T09:31:31.370Z,36.47
2019-03-01T09:34:01.115Z,38.40
2019-03-01T09:36:40.576Z,44.03
2019-03-01T09:39:10.597Z,37.87
2019-03-01T09:41:41.531Z,43.23
2019-03-01T09:44:11.353Z,35.30
2019-03-01T09:46:41.056Z,35.77
2019-03-01T09:49:11.148Z,32.70
2019-03-01T09:51:43.665Z,36.00
2019-03-01T09:54:12.274Z,36.45
2019-03-01T09:56:42.621Z,33.37
2019-03-01T09:59:12.341Z,38.27
2019-03-01T10:01:41.993Z,46.00
2019-03-01T10:04:11.893Z,42.00
2019-03-01T10:06:41.593Z,49.00
2019-03-01T10:09:11.985Z,52.40
2019-03-01T10:11:41.998Z,44.10
2019-03-01T10:14:11.737Z,43.10
2019-03-01T10:16:41.491Z,51.07
2019-03-01T10:19:11.334Z,49.87
2019-03-01T10:21:41.010Z,41.48
2019-03-01T10:24:10.709Z,43.80
2019-03-01T10:26:40.399Z,42.83
2019-03-01T10:29:10.308Z,37.10
2019-03-01T10:31:40.012Z,33.40
2019-03-01T10:34:09.664Z,32.10
2019-03-01T10:36:39.456Z,26.17
2019-03-01T10:39:13.943Z,29.65
2019-03-01T10:41:43.716Z,33.33
2019-03-01T10:44:13.393Z,23.38
2019-03-01T10:46:43.074Z,23.57
2019-03-01T10:49:13.720Z,18.47
2019-03-01T10:51:43.519Z,22.93
2019-03-01T10:54:13.233Z,19.07
2019-03-01T10:56:42.918Z,14.77
2019-03-01T10:59:12.605Z,19.65
2019-03-01T11:01:42.343Z,19.13
2019-03-01T11:04:12.280Z,14.80
2019-03-01T11:06:41.947Z,17.93
2019-03-01T11:09:13.866Z,17.87
2019-03-01T11:11:43.601Z,15.90
2019-03-01T11:14:13.515Z,15.50
2019-03-01T11:16:43.199Z,18.50
2019-03-01T11:19:12.920Z,21.17
2019-03-01T11:21:42.644Z,18.40
2019-03-01T11:24:12.431Z,17.17
2019-03-01T11:26:42.150Z,20.63
2019-03-01T11:29:11.810Z,18.07
2019-03-01T11:31:41.565Z,19.00
2019-03-01T11:34:11.288Z,18.73
2019-03-01T11:36:42.017Z,19.93
2019-03-01T11:39:11.950Z,25.37
2019-03-01T11:41:41.617Z,22.90
2019-03-01T11:44:11.379Z,25.80
2019-03-01T11:46:42.070Z,23.97
2019-03-01T11:49:11.767Z,25.33
2019-03-01T11:51:42.441Z,24.07
2019-03-01T11:54:12.378Z,26.47
2019-03-01T11:56:42.049Z,24.80
2019-03-01T11:59:11.742Z,21.73
2019-03-01T12:01:41.492Z,24.97
2019-03-01T12:04:11.192Z,28.43
2019-03-01T12:06:40.873Z,27.70
2019-03-01T12:09:10.983Z,23.70
2019-03-01T12:11:40.762Z,29.70
2019-03-01T12:14:10.440Z,27.07
2019-03-01T12:16:40.579Z,28.50
2019-03-01T12:19:10.289Z,23.90
2019-03-01T12:21:40.032Z,26.47
2019-03-01T12:24:09.877Z,26.00
2019-03-01T12:26:39.550Z,21.87
2019-03-01T12:29:09.314Z,22.27
2019-03-01T12:31:39.020Z,27.57
2019-03-01T12:34:08.694Z,23.95
2019-03-01T12:36:38.726Z,18.03
2019-03-01T12:39:10.022Z,23.23
2019-03-01T12:41:41.432Z,20.97
2019-03-01T12:44:11.172Z,18.67
2019-03-01T12:46:40.850Z,16.82
2019-03-01T12:49:11.597Z,19.13
2019-03-01T12:51:41.543Z,16.87
2019-03-01T12:54:11.396Z,23.15
2019-03-01T12:56:41.083Z,20.73
2019-03-01T12:59:11.572Z,19.55
2019-03-01T13:01:41.824Z,18.03
2019-03-01T13:04:11.538Z,19.57
2019-03-01T13:06:41.208Z,18.37
2019-03-01T13:09:16.048Z,14.83
2019-03-01T13:11:48.656Z,15.00
2019-03-01T13:14:17.521Z,13.90
2019-03-01T13:16:47.274Z,13.03
2019-03-01T13:19:16.951Z,8.73
2019-03-01T13:21:49.139Z,13.57
2019-03-01T13:24:18.355Z,11.57
2019-03-01T13:27:00.649Z,14.03
2019-03-01T13:29:30.633Z,10.30
2019-03-01T13:32:00.301Z,8.83
2019-03-01T13:34:29.967Z,5.50
2019-03-01T13:36:59.654Z,8.13
2019-03-01T13:39:29.320Z,9.23
2019-03-01T13:41:59.256Z,8.30
2019-03-01T13:44:28.922Z,8.55
2019-03-01T13:46:58.596Z,8.20
2019-03-01T13:49:30.409Z,9.70
2019-03-01T13:51:59.831Z,8.10
2019-03-01T13:54:29.866Z,9.00
2019-03-01T13:56:59.806Z,7.90
2019-03-01T13:59:29.500Z,8.50
2019-03-01T14:01:59.279Z,9.00
2019-03-01T14:04:29.003Z,9.30
2019-03-01T14:06:58.691Z,6.63
2019-03-01T14:09:28.614Z,9.53
2019-03-01T14:11:59.333Z,7.63
2019-03-01T14:14:30.258Z,11.47
2019-03-01T14:17:00.019Z,9.57
2019-03-01T14:19:30.071Z,7.87
2019-03-01T14:21:59.736Z,8.30
2019-03-01T14:24:30.332Z,8.03
2019-03-01T14:27:01.242Z,6.23
2019-03-01T14:29:31.020Z,5.63
2019-03-01T14:32:00.919Z,7.17
2019-03-01T14:34:30.826Z,4.83
2019-03-01T14:37:01.415Z,6.77
2019-03-01T14:39:31.193Z,6.53
2019-03-01T14:42:00.891Z,6.63
2019-03-01T14:44:33.865Z,6.83
2019-03-01T14:47:03.430Z,10.43
2019-03-01T14:49:33.129Z,12.13
2019-03-01T14:52:02.874Z,9.23
2019-03-01T14:54:32.587Z,10.33
2019-03-01T14:57:09.916Z,6.30
2019-03-01T14:59:54.964Z,6.87
2019-03-01T15:02:30.988Z,4.60
2019-03-01T15:05:05.481Z,8.07
2019-03-01T15:07:33.047Z,6.60
2019-03-01T15:10:02.985Z,9.57
2019-03-01T15:12:33.709Z,6.90
2019-03-01T15:15:03.600Z,6.93
2019-03-01T15:17:33.617Z,6.33
2019-03-01T15:20:03.358Z,6.57
2019-03-01T15:22:33.310Z,4.53
2019-03-01T15:25:02.976Z,6.65
2019-03-01T15:27:32.636Z,8.47
2019-03-01T15:30:05.638Z,8.00
2019-03-01T15:32:36.185Z,5.83
2019-03-01T15:35:06.358Z,7.50
2019-03-01T15:37:36.416Z,6.23
2019-03-01T15:40:07.379Z,5.95
2019-03-01T15:42:37.147Z,6.93
2019-03-01T15:45:07.799Z,4.07
2019-03-01T15:47:37.462Z,7.33
2019-03-01T15:50:08.878Z,4.53
2019-03-01T15:52:38.696Z,5.70
2019-03-01T15:55:11.829Z,6.23
2019-03-01T15:57:41.435Z,5.33
2019-03-01T16:00:11.376Z,5.00
2019-03-01T16:02:41.273Z,8.50
2019-03-01T16:05:11.332Z,4.90
2019-03-01T16:07:40.995Z,5.57
2019-03-01T16:10:11.177Z,3.98
2019-03-01T16:12:40.952Z,6.57
2019-03-01T16:15:12.008Z,7.00
2019-03-01T16:17:41.801Z,3.77
2019-03-01T16:20:12.837Z,5.50
2019-03-01T16:22:42.645Z,3.67
2019-03-01T16:25:13.197Z,7.00
2019-03-01T16:27:42.981Z,7.53
2019-03-01T16:30:14.550Z,4.58
2019-03-01T16:32:49.709Z,6.60
2019-03-01T16:35:18.468Z,7.07
2019-03-01T16:37:49.580Z,5.93
2019-03-01T16:40:19.835Z,7.60
2019-03-01T16:42:54.312Z,7.20
2019-03-01T16:45:21.998Z,7.55
2019-03-01T16:47:51.638Z,9.10
2019-03-01T16:50:21.659Z,4.77
2019-03-01T16:52:51.383Z,6.87
2019-03-01T16:55:24.487Z,4.80
2019-03-01T16:57:54.976Z,5.70
2019-03-01T17:00:24.253Z,4.93
2019-03-01T17:02:53.995Z,6.17
2019-03-01T17:05:24.001Z,5.40
2019-03-01T17:07:53.741Z,7.47
2019-03-01T17:10:26.434Z,8.17
2019-03-01T17:12:55.140Z,4.53
2019-03-01T17:15:24.908Z,7.20
2019-03-01T17:17:54.663Z,6.93
2019-03-01T17:20:24.348Z,5.83
2019-03-01T17:22:54.105Z,7.63
2019-03-01T17:25:26.725Z,7.55
2019-03-01T17:27:55.639Z,7.63
2019-03-01T17:30:25.788Z,12.93
2019-03-01T17:32:55.732Z,13.33
2019-03-01T17:35:25.518Z,8.23
2019-03-01T17:37:55.183Z,5.00
2019-03-01T17:40:24.881Z,4.90
2019-03-01T17:42:56.432Z,9.10
2019-03-01T17:45:25.945Z,6.27
2019-03-01T17:47:55.705Z,7.60
2019-03-01T17:50:25.601Z,6.17
2019-03-01T17:52:55.284Z,8.53
2019-03-01T17:55:25.045Z,10.37
2019-03-01T17:57:54.803Z,7.57
2019-03-01T18:00:30.541Z,7.57
2019-03-01T18:03:00.246Z,9.63
2019-03-01T18:05:30.006Z,6.30
2019-03-01T18:08:03.202Z,7.03
2019-03-01T18:10:33.045Z,5.33
2019-03-01T18:13:02.822Z,5.62
2019-03-01T18:15:32.564Z,6.13
2019-03-01T18:18:02.231Z,8.00
2019-03-01T18:20:33.887Z,9.67
2019-03-01T18:23:04.966Z,6.03
2019-03-01T18:25:34.823Z,5.00
2019-03-01T18:28:05.493Z,6.93
2019-03-01T18:30:35.296Z,4.97
2019-03-01T18:33:05.127Z,8.43
2019-03-01T18:35:34.951Z,7.97
2019-03-01T18:38:05.170Z,6.33
2019-03-01T18:40:34.834Z,6.37
2019-03-01T18:43:05.039Z,8.43
2019-03-01T18:45:34.783Z,6.90
2019-03-01T18:48:08.695Z,4.50
2019-03-01T18:50:36.665Z,5.57
2019-03-01T18:53:06.400Z,4.63
2019-03-01T18:55:36.170Z,7.33
2019-03-01T18:58:06.115Z,7.00
2019-03-01T19:00:37.088Z,5.73
2019-03-01T19:03:06.952Z,7.23
2019-03-01T19:05:40.032Z,4.77
2019-03-01T19:08:08.776Z,8.77
2019-03-01T19:10:38.609Z,7.27
2019-03-01T19:13:08.376Z,5.33
2019-03-01T19:15:38.319Z,9.27
2019-03-01T19:18:08.070Z,8.65
2019-03-01T19:20:41.580Z,8.47
2019-03-01T19:23:10.329Z,7.00
2019-03-01T19:25:40.150Z,5.60
2019-03-01T19:28:09.911Z,5.25
2019-03-01T19:30:40.563Z,4.17
2019-03-01T19:33:10.308Z,5.47
2019-03-01T19:35:40.047Z,3.53
2019-03-01T19:38:09.821Z,3.52
2019-03-01T19:40:39.540Z,4.73
2019-03-01T19:43:10.267Z,4.50
2019-03-01T19:45:41.826Z,3.73
2019-03-01T19:48:11.568Z,4.37
2019-03-01T19:50:41.260Z,3.77
2019-03-01T19:53:10.965Z,3.63
2019-03-01T19:55:40.640Z,4.83
2019-03-01T19:58:12.779Z,3.42
2019-03-01T20:00:43.552Z,3.60
2019-03-01T20:03:13.215Z,4.83
2019-03-01T20:05:42.953Z,6.23
2019-03-01T20:08:12.654Z,5.10
2019-03-01T20:10:42.396Z,6.10
2019-03-01T20:13:16.449Z,3.57
2019-03-01T20:15:46.041Z,3.10
2019-03-01T20:18:16.182Z,8.50
2019-03-01T20:20:45.948Z,4.13
2019-03-01T20:23:15.619Z,4.70
2019-03-01T20:25:47.483Z,7.43
2019-03-01T20:28:16.945Z,3.30
2019-03-01T20:30:46.895Z,5.23
2019-03-01T20:33:16.575Z,8.30
2019-03-01T20:35:46.512Z,5.17
2019-03-01T20:38:17.052Z,5.78
2019-03-01T20:40:46.868Z,4.27
2019-03-01T20:43:16.553Z,5.03
2019-03-01T20:45:46.558Z,5.17
2019-03-01T20:48:16.293Z,3.63
2019-03-01T20:50:47.619Z,3.63
2019-03-01T20:53:17.578Z,13.03
2019-03-01T20:55:47.227Z,7.13
2019-03-01T20:58:17.016Z,5.92
2019-03-01T21:00:46.725Z,6.70
2019-03-01T21:03:16.413Z,14.23
2019-03-01T21:05:46.115Z,7.43
2019-03-01T21:08:15.852Z,5.97
2019-03-01T21:10:46.855Z,7.23
2019-03-01T21:13:16.990Z,6.40
2019-03-01T21:15:46.696Z,4.37
2019-03-01T21:18:16.382Z,5.85
2019-03-01T21:20:46.076Z,3.90
2019-03-01T21:23:15.948Z,5.13
2019-03-01T21:25:45.623Z,5.17
2019-03-01T21:28:15.415Z,4.70
2019-03-01T21:30:45.677Z,7.20
2019-03-01T21:33:15.939Z,7.53
2019-03-01T21:35:47.765Z,9.30
2019-03-01T21:38:17.351Z,9.13
2019-03-01T21:40:47.593Z,12.90
2019-03-01T21:43:18.225Z,10.50
2019-03-01T21:45:48.291Z,14.27
2019-03-01T21:48:18.675Z,10.50
2019-03-01T21:50:48.425Z,9.60
2019-03-01T21:53:18.119Z,10.58
2019-03-01T21:55:47.912Z,9.13
2019-03-01T21:58:17.585Z,8.43
2019-03-01T22:00:47.377Z,9.13
2019-03-01T22:03:17.226Z,6.40
2019-03-01T22:05:48.589Z,8.80
2019-03-01T22:08:18.262Z,17.77
2019-03-01T22:10:48.020Z,10.93
2019-03-01T22:13:17.796Z,9.00
2019-03-01T22:15:47.499Z,11.90
2019-03-01T22:18:20.369Z,8.05
2019-03-01T22:20:49.135Z,6.50
2019-03-01T22:23:19.054Z,5.07
2019-03-01T22:25:48.752Z,5.85
2019-03-01T22:28:18.521Z,5.27
2019-03-01T22:30:48.184Z,6.93
2019-03-01T22:33:20.864Z,4.30
2019-03-01T22:35:49.323Z,7.23
2019-03-01T22:38:19.243Z,5.80
2019-03-01T22:40:48.913Z,6.27
2019-03-01T22:43:18.635Z,7.40
2019-03-01T22:45:48.919Z,5.70
2019-03-01T22:48:18.688Z,4.70
2019-03-01T22:50:48.371Z,7.97
2019-03-01T22:53:18.096Z,4.17
2019-03-01T22:55:47.932Z,6.67
2019-03-01T22:58:17.585Z,5.43
2019-03-01T23:01:07.287Z,7.07
2019-03-01T23:03:38.662Z,5.80
2019-03-01T23:06:11.656Z,9.50
2019-03-01T23:08:39.946Z,17.10
2019-03-01T23:11:09.692Z,10.23
2019-03-01T23:13:39.363Z,10.83
2019-03-01T23:16:09.275Z,6.30
2019-03-01T23:18:40.452Z,6.27
2019-03-01T23:21:11.186Z,5.67
2019-03-01T23:23:41.092Z,5.90
2019-03-01T23:26:10.767Z,5.97
2019-03-01T23:28:40.940Z,5.00
2019-03-01T23:31:12.225Z,3.33
2019-03-01T23:33:41.913Z,3.33
2019-03-01T23:36:12.926Z,5.63
2019-03-01T23:38:42.571Z,3.50
2019-03-01T23:41:12.703Z,2.43
2019-03-01T23:43:42.493Z,2.97
2019-03-01T23:46:12.316Z,2.62
2019-03-01T23:48:45.524Z,2.27
2019-03-01T23:51:14.488Z,2.40
2019-03-01T23:53:44.469Z,3.27
2019-03-01T23:56:14.171Z,2.57
2019-03-01T23:58:44.143Z,2.00
